createdAt,value
2022-09-15T00:01:08.126Z,14.95
2022-09-15T00:03:34.767Z,14.98
2022-09-15T00:06:01.353Z,14.43
2022-09-15T00:08:27.934Z,14.75
2022-09-15T00:10:58.418Z,14.55
2022-09-15T00:13:25.737Z,14.88
2022-09-15T00:15:52.711Z,15.55
2022-09-15T00:18:19.285Z,15.07
2022-09-15T00:20:46.359Z,14.85
2022-09-15T00:23:16.548Z,14.88
2022-09-15T00:25:45.765Z,15.30
2022-09-15T00:28:13.558Z,13.70
2022-09-15T00:30:42.107Z,14.88
2022-09-15T00:33:08.935Z,14.50
2022-09-15T00:35:44.340Z,15.45
2022-09-15T00:38:12.259Z,14.25
2022-09-15T00:40:56.370Z,15.98
2022-09-15T00:43:45.035Z,14.40
2022-09-15T00:46:12.144Z,15.57
2022-09-15T00:48:42.531Z,15.27
2022-09-15T00:51:10.757Z,14.20
2022-09-15T00:53:37.777Z,14.00
2022-09-15T00:56:05.138Z,16.08
2022-09-15T00:58:41.069Z,15.43
2022-09-15T01:01:08.495Z,14.07
2022-09-15T01:03:35.797Z,12.75
2022-09-15T01:06:08.228Z,14.45
2022-09-15T01:08:39.727Z,15.40
2022-09-15T01:11:06.926Z,14.27
2022-09-15T01:13:35.536Z,14.52
2022-09-15T01:16:29.276Z,14.82
2022-09-15T01:19:33.613Z,14.50
2022-09-15T01:22:13.798Z,14.15
2022-09-15T01:24:52.633Z,14.70
2022-09-15T01:27:42.967Z,13.45
2022-09-15T01:30:14.676Z,14.38
2022-09-15T01:33:05.249Z,14.85
2022-09-15T01:35:43.897Z,14.65
2022-09-15T01:38:22.570Z,15.00
2022-09-15T01:40:55.816Z,14.70
2022-09-15T01:43:24.119Z,14.80
2022-09-15T01:45:51.698Z,16.02
2022-09-15T01:48:20.303Z,14.80
2022-09-15T01:50:50.369Z,15.15
2022-09-15T01:53:19.533Z,15.48
2022-09-15T01:56:00.212Z,14.80
2022-09-15T01:58:26.822Z,15.27
2022-09-15T02:01:12.422Z,16.00
2022-09-15T02:03:46.238Z,14.27
2022-09-15T02:06:36.668Z,14.32
2022-09-15T02:09:12.681Z,14.50
2022-09-15T02:11:49.049Z,14.75
2022-09-15T02:14:26.113Z,14.23
2022-09-15T02:16:54.013Z,13.30
2022-09-15T02:19:34.261Z,14.30
2022-09-15T02:22:14.499Z,13.98
2022-09-15T02:24:45.977Z,14.63
2022-09-15T02:27:16.785Z,15.00
2022-09-15T02:29:45.389Z,14.82
2022-09-15T02:32:13.858Z,15.50
2022-09-15T02:34:45.430Z,15.15
2022-09-15T02:37:13.161Z,15.00
2022-09-15T02:39:44.037Z,15.32
2022-09-15T02:42:10.801Z,14.57
2022-09-15T02:44:37.680Z,15.27
2022-09-15T02:47:04.457Z,14.10
2022-09-15T02:49:31.096Z,14.48
2022-09-15T02:51:57.693Z,15.30
2022-09-15T02:54:24.301Z,15.93
2022-09-15T02:56:50.894Z,14.85
2022-09-15T02:59:17.466Z,14.68
2022-09-15T03:01:44.988Z,16.55
2022-09-15T03:04:11.624Z,16.63
2022-09-15T03:06:38.291Z,14.50
2022-09-15T03:09:08.110Z,15.60
2022-09-15T03:11:35.122Z,16.55
2022-09-15T03:14:04.138Z,14.98
2022-09-15T03:16:32.293Z,15.25
2022-09-15T03:18:59.509Z,15.82
2022-09-15T03:21:27.617Z,15.68
2022-09-15T03:23:54.211Z,17.15
2022-09-15T03:26:20.854Z,16.25
2022-09-15T03:28:47.445Z,15.23
2022-09-15T03:31:14.088Z,16.15
2022-09-15T03:33:41.165Z,15.82
2022-09-15T03:36:08.130Z,16.95
2022-09-15T03:38:34.764Z,15.43
2022-09-15T03:41:07.722Z,15.90
2022-09-15T03:43:35.433Z,16.88
2022-09-15T03:46:02.888Z,16.52
2022-09-15T03:48:31.219Z,16.10
2022-09-15T03:50:57.966Z,15.68
2022-09-15T03:53:24.825Z,15.07
2022-09-15T03:55:51.651Z,15.82
2022-09-15T03:58:19.194Z,16.52
2022-09-15T04:00:46.799Z,15.05
2022-09-15T04:03:14.062Z,15.23
2022-09-15T04:05:42.289Z,15.25
2022-09-15T04:08:12.711Z,14.80
2022-09-15T04:10:40.904Z,15.73
2022-09-15T04:13:07.925Z,16.10
2022-09-15T04:15:35.923Z,16.23
2022-09-15T04:18:04.866Z,14.55
2022-09-15T04:20:31.928Z,16.25
2022-09-15T04:22:58.671Z,16.27
2022-09-15T04:25:27.798Z,15.90
2022-09-15T04:27:54.448Z,15.55
2022-09-15T04:30:21.039Z,15.23
2022-09-15T04:32:48.846Z,15.90
2022-09-15T04:35:16.209Z,16.60
2022-09-15T04:37:42.815Z,15.85
2022-09-15T04:40:11.537Z,16.75
2022-09-15T04:42:38.356Z,16.98
2022-09-15T04:45:07.072Z,14.70
2022-09-15T04:47:33.705Z,16.30
2022-09-15T04:50:00.470Z,15.77
2022-09-15T04:52:27.463Z,16.88
2022-09-15T04:54:54.662Z,15.07
2022-09-15T04:57:21.425Z,16.42
2022-09-15T04:59:48.045Z,15.50
2022-09-15T05:02:14.819Z,16.42
2022-09-15T05:04:41.587Z,15.82
2022-09-15T05:07:08.268Z,15.38
2022-09-15T05:09:34.920Z,16.05
2022-09-15T05:12:01.920Z,15.45
2022-09-15T05:14:28.643Z,14.02
2022-09-15T05:16:55.321Z,15.50
2022-09-15T05:19:22.111Z,15.10
2022-09-15T05:21:48.833Z,15.52
2022-09-15T05:24:15.502Z,15.57
2022-09-15T05:26:42.093Z,16.30
2022-09-15T05:29:08.853Z,15.35
2022-09-15T05:31:35.618Z,14.52
2022-09-15T05:34:06.899Z,14.73
2022-09-15T05:36:33.779Z,15.70
2022-09-15T05:39:01.778Z,16.45
2022-09-15T05:41:29.034Z,16.30
2022-09-15T05:43:59.649Z,15.07
2022-09-15T05:46:27.041Z,15.38
2022-09-15T05:48:58.621Z,14.65
2022-09-15T05:51:25.554Z,16.20
2022-09-15T05:53:52.430Z,15.50
2022-09-15T05:56:20.069Z,15.82
2022-09-15T05:58:53.275Z,14.90
2022-09-15T06:01:25.212Z,14.35
2022-09-15T06:03:52.642Z,15.95
2022-09-15T06:06:19.806Z,15.43
2022-09-15T06:08:51.843Z,16.23
2022-09-15T06:11:22.241Z,16.77
2022-09-15T06:13:49.936Z,15.35
2022-09-15T06:16:19.376Z,14.80
2022-09-15T06:18:47.354Z,15.13
2022-09-15T06:21:16.453Z,16.15
2022-09-15T06:23:47.172Z,13.60
2022-09-15T06:26:18.901Z,15.55
2022-09-15T06:28:50.841Z,15.20
2022-09-15T06:31:18.391Z,15.35
2022-09-15T06:33:47.114Z,15.40
2022-09-15T06:36:15.497Z,14.23
2022-09-15T06:38:42.505Z,14.60
2022-09-15T06:41:09.468Z,14.85
2022-09-15T06:52:42.753Z,13.13
2022-09-15T07:13:32.133Z,11.68
2022-09-15T07:19:00.109Z,11.70
2022-09-15T07:21:30.259Z,11.48
2022-09-15T07:46:03.403Z,9.10
2022-09-15T07:48:30.780Z,9.25
2022-09-15T07:50:59.990Z,8.88
2022-09-15T07:56:18.633Z,7.70
2022-09-15T07:58:46.423Z,8.10
2022-09-15T08:01:33.459Z,7.85
2022-09-15T08:04:00.501Z,8.25
2022-09-15T08:06:27.470Z,8.50
2022-09-15T08:09:00.151Z,7.65
2022-09-15T08:11:35.465Z,8.35
2022-09-15T08:14:04.210Z,8.43
2022-09-15T08:16:30.979Z,8.93
2022-09-15T08:19:00.077Z,8.57
2022-09-15T08:21:27.819Z,8.57
2022-09-15T08:23:56.539Z,8.52
2022-09-15T08:29:09.955Z,7.55
2022-09-15T08:31:36.693Z,8.73
2022-09-15T08:34:06.531Z,8.05
2022-09-15T08:36:34.867Z,7.68
2022-09-15T08:39:01.523Z,7.40
2022-09-15T08:41:36.485Z,7.90
2022-09-15T08:44:25.220Z,7.25
2022-09-15T08:47:12.524Z,7.05
2022-09-15T08:50:04.179Z,7.15
2022-09-15T08:52:39.235Z,7.00
2022-09-15T08:55:17.972Z,7.25
2022-09-15T08:57:45.178Z,5.60
2022-09-15T09:00:16.838Z,7.05
2022-09-15T09:03:08.437Z,6.28
2022-09-15T09:06:02.771Z,4.57
2022-09-15T09:08:48.276Z,5.65
2022-09-15T09:11:30.767Z,5.18
2022-09-15T09:14:24.570Z,4.18
2022-09-15T09:17:04.711Z,3.80
2022-09-15T09:19:40.398Z,3.25
2022-09-15T09:22:10.877Z,2.47
2022-09-15T09:24:43.202Z,1.92
2022-09-15T09:27:14.240Z,1.80
2022-09-15T09:29:49.530Z,1.90
2022-09-15T09:32:28.540Z,1.92
2022-09-15T09:35:02.074Z,2.25
2022-09-15T09:37:29.187Z,1.67
2022-09-15T09:39:55.907Z,1.55
2022-09-15T09:42:28.211Z,1.67
2022-09-15T09:44:55.508Z,1.40
2022-09-15T09:47:27.796Z,1.63
2022-09-15T09:49:54.485Z,1.58
2022-09-15T09:52:39.547Z,1.23
2022-09-15T09:55:18.587Z,1.63
2022-09-15T09:57:47.561Z,1.40
2022-09-15T10:00:35.458Z,1.63
2022-09-15T10:03:33.044Z,1.40
2022-09-15T10:06:11.791Z,1.27
2022-09-15T10:08:53.338Z,1.58
2022-09-15T10:11:22.688Z,1.58
2022-09-15T10:13:52.692Z,1.65
2022-09-15T10:16:19.800Z,1.88
2022-09-15T10:18:53.585Z,1.38
2022-09-15T10:21:24.055Z,1.35
2022-09-15T10:23:51.237Z,1.63
2022-09-15T10:26:23.771Z,1.33
2022-09-15T10:29:14.879Z,1.65
2022-09-15T10:31:42.079Z,1.83
2022-09-15T10:34:30.527Z,1.10
2022-09-15T10:37:08.838Z,1.38
2022-09-15T10:40:08.030Z,1.10
2022-09-15T10:42:49.277Z,1.40
2022-09-15T10:45:18.896Z,1.05
2022-09-15T10:48:12.352Z,1.35
2022-09-15T10:50:57.868Z,1.20
2022-09-15T10:53:44.182Z,1.27
2022-09-15T10:56:26.549Z,1.80
2022-09-15T10:59:17.882Z,1.27
2022-09-15T11:02:14.380Z,1.23
2022-09-15T11:05:13.961Z,1.10
2022-09-15T11:08:08.727Z,1.48
2022-09-15T11:10:54.299Z,1.33
2022-09-15T11:13:51.324Z,0.98
2022-09-15T11:16:39.077Z,1.05
2022-09-15T11:19:41.942Z,1.83
2022-09-15T11:22:21.862Z,1.83
2022-09-15T11:24:57.694Z,1.67
2022-09-15T11:27:34.594Z,1.80
2022-09-15T11:30:13.405Z,1.30
2022-09-15T11:33:04.799Z,1.17
2022-09-15T11:35:55.361Z,1.02
2022-09-15T11:38:43.059Z,0.90
2022-09-15T11:41:35.307Z,1.20
2022-09-15T11:44:06.375Z,0.95
2022-09-15T11:47:04.927Z,1.00
2022-09-15T11:49:37.401Z,0.80
2022-09-15T11:52:19.243Z,0.65
2022-09-15T11:55:01.768Z,0.70
2022-09-15T11:57:36.922Z,0.63
2022-09-15T12:00:12.743Z,1.20
2022-09-15T12:02:58.257Z,0.95
2022-09-15T12:05:32.035Z,1.27
2022-09-15T12:08:04.548Z,1.30
2022-09-15T12:10:38.474Z,0.80
2022-09-15T12:13:05.817Z,1.20
2022-09-15T12:15:32.705Z,1.00
2022-09-15T12:18:06.614Z,1.00
2022-09-15T12:20:52.732Z,1.20
2022-09-15T12:23:29.399Z,1.10
2022-09-15T12:26:18.530Z,1.10
2022-09-15T12:29:02.447Z,1.00
2022-09-15T12:31:37.053Z,1.10
2022-09-15T12:34:23.184Z,1.20
2022-09-15T12:36:53.504Z,1.73
2022-09-15T12:39:38.722Z,1.27
2022-09-15T12:42:24.873Z,0.82
2022-09-15T12:44:56.327Z,0.93
2022-09-15T12:47:38.738Z,1.23
2022-09-15T12:50:16.324Z,1.27
2022-09-15T12:52:58.653Z,1.33
2022-09-15T12:55:28.544Z,0.88
2022-09-15T12:58:09.880Z,1.30
2022-09-15T13:01:00.599Z,1.27
2022-09-15T13:03:37.606Z,0.73
2022-09-15T13:06:13.521Z,1.00
2022-09-15T13:08:52.426Z,0.70
2022-09-15T13:11:27.252Z,1.00
2022-09-15T13:14:06.974Z,1.02
2022-09-15T13:16:54.531Z,1.27
2022-09-15T13:19:37.479Z,1.20
2022-09-15T13:22:32.644Z,1.30
2022-09-15T13:25:13.767Z,1.20
2022-09-15T13:27:53.268Z,1.20
2022-09-15T13:30:53.916Z,1.63
2022-09-15T13:33:21.458Z,1.23
2022-09-15T13:36:13.560Z,1.20
2022-09-15T13:39:14.222Z,1.40
2022-09-15T13:41:59.916Z,1.48
2022-09-15T13:44:42.304Z,1.45
2022-09-15T13:47:46.842Z,1.60
2022-09-15T13:50:33.495Z,1.40
2022-09-15T13:56:41.774Z,1.52
2022-09-15T13:59:42.441Z,1.40
2022-09-15T14:02:09.322Z,1.50
2022-09-15T14:04:36.115Z,1.60
2022-09-15T14:07:04.992Z,1.70
2022-09-15T14:09:44.882Z,1.63
2022-09-15T14:12:12.605Z,1.25
2022-09-15T14:14:58.161Z,1.30
2022-09-15T14:17:40.691Z,1.23
2022-09-15T14:20:27.004Z,1.38
2022-09-15T14:25:55.004Z,1.20
2022-09-15T14:28:31.502Z,1.42
2022-09-15T14:31:00.097Z,1.58
2022-09-15T14:33:47.629Z,1.40
2022-09-15T14:36:22.921Z,1.42
2022-09-15T14:39:21.903Z,0.90
2022-09-15T14:41:50.430Z,1.25
2022-09-15T14:47:28.636Z,0.77
2022-09-15T14:50:31.739Z,0.85
2022-09-15T14:53:07.823Z,1.08
2022-09-15T14:55:53.594Z,0.80
2022-09-15T14:58:52.102Z,0.88
2022-09-15T15:01:43.600Z,0.90
2022-09-15T15:04:24.468Z,0.88
2022-09-15T15:06:57.409Z,1.00
2022-09-15T15:09:35.026Z,0.70
2022-09-15T15:12:05.347Z,0.90
2022-09-15T15:14:46.077Z,0.70
2022-09-15T15:17:44.111Z,0.90
2022-09-15T15:20:11.022Z,0.90
2022-09-15T15:22:38.881Z,0.60
2022-09-15T15:25:24.630Z,0.98
2022-09-15T15:27:54.132Z,0.93
2022-09-15T15:30:30.612Z,0.80
2022-09-15T15:33:04.979Z,1.00
2022-09-15T15:35:33.009Z,0.80
2022-09-15T15:40:48.666Z,1.38
2022-09-15T15:43:24.839Z,0.90
2022-09-15T15:46:03.781Z,1.10
2022-09-15T15:48:37.919Z,1.00
2022-09-15T15:51:09.696Z,1.00
2022-09-15T15:53:37.184Z,1.27
2022-09-15T15:56:04.486Z,1.13
2022-09-15T15:58:31.447Z,0.85
2022-09-15T16:00:58.109Z,0.90
2022-09-15T16:03:25.700Z,1.42
2022-09-15T16:05:54.443Z,0.98
2022-09-15T16:08:34.380Z,0.90
2022-09-15T16:11:02.180Z,0.80
2022-09-15T16:13:28.918Z,0.75
2022-09-15T16:15:57.838Z,0.82
2022-09-15T16:18:24.853Z,0.90
2022-09-15T16:20:52.078Z,0.90
2022-09-15T16:23:21.049Z,0.80
2022-09-15T16:25:58.181Z,1.23
2022-09-15T16:28:25.144Z,1.05
2022-09-15T16:30:51.882Z,0.80
2022-09-15T16:33:19.237Z,1.20
2022-09-15T16:35:51.156Z,1.20
2022-09-15T16:38:20.192Z,0.93
2022-09-15T16:40:48.047Z,1.30
2022-09-15T16:43:17.558Z,1.02
2022-09-15T16:45:44.425Z,1.83
2022-09-15T16:48:13.420Z,1.42
2022-09-15T16:50:50.094Z,1.60
2022-09-15T16:53:23.001Z,1.85
2022-09-15T16:55:51.702Z,1.40
2022-09-15T16:58:20.233Z,1.98
2022-09-15T17:00:56.485Z,1.27
2022-09-15T17:03:36.488Z,2.00
2022-09-15T17:06:03.394Z,1.30
2022-09-15T17:08:32.562Z,1.58
2022-09-15T17:11:04.560Z,1.08
2022-09-15T17:13:34.628Z,1.23
2022-09-15T17:16:01.912Z,1.50
2022-09-15T17:18:28.801Z,1.35
2022-09-15T17:20:55.791Z,1.40
2022-09-15T17:23:32.507Z,1.65
2022-09-15T17:26:04.415Z,1.13
2022-09-15T17:28:38.441Z,1.70
2022-09-15T17:31:22.346Z,1.45
2022-09-15T17:33:49.973Z,1.80
2022-09-15T17:36:17.407Z,1.58
2022-09-15T17:38:50.410Z,1.67
2022-09-15T17:41:19.625Z,1.35
2022-09-15T17:43:48.021Z,1.52
2022-09-15T17:46:14.811Z,1.42
2022-09-15T17:48:41.925Z,1.42
2022-09-15T17:51:14.563Z,1.50
2022-09-15T17:53:42.379Z,1.05
2022-09-15T17:56:13.110Z,1.45
2022-09-15T17:58:40.121Z,1.73
2022-09-15T18:01:08.824Z,1.38
2022-09-15T18:03:37.512Z,2.17
2022-09-15T18:06:07.452Z,1.42
2022-09-15T18:08:38.234Z,1.75
2022-09-15T18:11:06.737Z,1.77
2022-09-15T18:16:14.918Z,1.77
2022-09-15T18:18:44.392Z,2.38
2022-09-15T18:21:24.567Z,1.40
2022-09-15T18:23:51.339Z,1.73
2022-09-15T18:26:21.444Z,1.60
2022-09-15T18:28:56.491Z,1.30
2022-09-15T18:31:23.347Z,1.20
2022-09-15T18:33:50.695Z,1.00
2022-09-15T18:36:17.700Z,1.60
2022-09-15T18:38:59.046Z,1.20
2022-09-15T18:44:47.253Z,1.30
2022-09-15T18:47:16.861Z,1.17
2022-09-15T18:49:49.031Z,1.60
2022-09-15T18:52:20.141Z,1.50
2022-09-15T18:57:27.510Z,1.45
2022-09-15T19:00:03.258Z,1.20
2022-09-15T19:02:30.126Z,1.83
2022-09-15T19:04:57.357Z,1.45
2022-09-15T19:07:28.199Z,1.42
2022-09-15T19:09:59.001Z,1.33
2022-09-15T19:12:28.521Z,1.38
2022-09-15T19:14:56.092Z,1.33
2022-09-15T19:17:27.023Z,1.63
2022-09-15T19:19:55.295Z,1.25
2022-09-15T19:22:24.224Z,1.13
2022-09-15T19:24:51.328Z,1.38
2022-09-15T19:27:35.131Z,1.30
2022-09-15T19:30:01.903Z,1.75
2022-09-15T19:32:29.327Z,1.60
2022-09-15T19:35:06.662Z,1.58
2022-09-15T19:40:20.699Z,1.50
2022-09-15T19:42:53.529Z,1.67
2022-09-15T19:48:00.916Z,1.70
2022-09-15T19:50:30.259Z,1.67
2022-09-15T19:52:59.729Z,1.40
2022-09-15T19:55:32.862Z,1.50
2022-09-15T19:57:59.616Z,1.80
2022-09-15T20:00:26.620Z,1.77
2022-09-15T20:02:55.476Z,1.40
2022-09-15T20:05:22.160Z,1.20
2022-09-15T20:07:48.906Z,1.65
2022-09-15T20:10:17.069Z,1.30
2022-09-15T20:12:44.141Z,1.02
2022-09-15T20:15:11.067Z,1.10
2022-09-15T20:17:41.781Z,1.10
2022-09-15T20:20:10.794Z,1.10
2022-09-15T20:22:49.242Z,1.13
2022-09-15T20:25:16.095Z,0.90
2022-09-15T20:27:44.243Z,1.10
2022-09-15T20:30:11.215Z,0.90
2022-09-15T20:32:37.863Z,1.23
2022-09-15T20:35:08.482Z,1.00
2022-09-15T20:37:37.675Z,1.15
2022-09-15T20:40:08.783Z,1.00
2022-09-15T20:42:36.776Z,0.98
2022-09-15T20:45:04.979Z,1.00
2022-09-15T20:47:31.712Z,0.80
2022-09-15T20:49:59.430Z,0.77
2022-09-15T20:52:38.225Z,0.77
2022-09-15T20:55:05.689Z,0.70
2022-09-15T20:57:32.321Z,0.82
2022-09-15T20:59:59.593Z,0.90
2022-09-15T21:02:26.564Z,0.50
2022-09-15T21:04:53.276Z,0.70
2022-09-15T21:07:24.908Z,0.80
2022-09-15T21:09:51.498Z,0.80
2022-09-15T21:12:20.318Z,0.77
2022-09-15T21:14:47.046Z,0.70
2022-09-15T21:17:14.120Z,0.65
2022-09-15T21:19:40.868Z,0.73
2022-09-15T21:22:07.569Z,0.90
2022-09-15T21:24:34.500Z,0.80
2022-09-15T21:27:30.640Z,0.68
2022-09-15T21:29:58.527Z,0.82
2022-09-15T21:32:26.190Z,0.90
2022-09-15T21:34:56.179Z,0.82
2022-09-15T21:37:22.914Z,0.73
2022-09-15T21:39:50.255Z,0.75
2022-09-15T21:42:17.507Z,0.80
2022-09-15T21:44:46.891Z,0.90
2022-09-15T21:47:16.406Z,1.23
2022-09-15T21:49:43.086Z,1.20
2022-09-15T21:52:12.059Z,1.35
2022-09-15T21:54:39.312Z,1.45
2022-09-15T21:57:06.050Z,1.50
2022-09-15T21:59:32.724Z,1.40
2022-09-15T22:01:59.491Z,1.38
2022-09-15T22:04:26.208Z,1.42
2022-09-15T22:06:53.030Z,1.23
2022-09-15T22:09:22.734Z,1.20
2022-09-15T22:11:49.445Z,1.42
2022-09-15T22:14:18.270Z,1.35
2022-09-15T22:16:45.110Z,1.70
2022-09-15T22:19:12.209Z,1.23
2022-09-15T22:21:41.668Z,1.40
2022-09-15T22:24:22.787Z,1.38
2022-09-15T22:26:49.498Z,1.40
2022-09-15T22:29:16.127Z,2.00
2022-09-15T22:31:42.845Z,1.70
2022-09-15T22:34:09.795Z,1.63
2022-09-15T22:36:37.936Z,1.45
2022-09-15T22:39:06.313Z,1.65
2022-09-15T22:41:37.885Z,1.70
2022-09-15T22:44:05.895Z,1.40
2022-09-15T22:46:32.975Z,1.20
2022-09-15T22:48:59.984Z,1.23
2022-09-15T22:51:26.664Z,1.20
2022-09-15T22:53:54.823Z,2.20
2022-09-15T22:56:21.723Z,1.38
2022-09-15T22:58:49.498Z,1.58
2022-09-15T23:01:21.580Z,1.70
2022-09-15T23:03:56.147Z,1.48
2022-09-15T23:06:23.234Z,1.73
2022-09-15T23:08:58.021Z,2.53
2022-09-15T23:11:25.934Z,2.13
2022-09-15T23:13:53.481Z,1.95
2022-09-15T23:16:21.641Z,1.50
2022-09-15T23:18:49.206Z,1.27
2022-09-15T23:21:16.108Z,1.02
2022-09-15T23:23:44.368Z,1.10
2022-09-15T23:26:12.425Z,1.10
2022-09-15T23:28:39.801Z,1.50
2022-09-15T23:31:07.172Z,1.15
2022-09-15T23:33:34.321Z,1.35
2022-09-15T23:36:02.566Z,1.30
2022-09-15T23:38:29.911Z,1.38
2022-09-15T23:40:56.906Z,1.70
2022-09-15T23:43:23.575Z,1.60
2022-09-15T23:45:51.300Z,1.48
2022-09-15T23:48:18.044Z,1.10
2022-09-15T23:50:44.769Z,1.27
2022-09-15T23:53:11.921Z,1.10
2022-09-15T23:55:38.593Z,1.35
2022-09-15T23:58:05.538Z,1.27
